Time,TemperatureF,DewpointF,PressureIn,WindDirection,WindDirectionDegrees,WindSpeedMPH,WindSpeedGustMPH,Humidity,HourlyPrecipIn,Conditions,Clouds,dailyrainin,SolarRadiationWatts/m^2,SoftwareType,DateUTC
2013-05-22 16:56:00,86.8,60.3,29.76,SSW,205,6.0,6.0,41,0.00,,,0.00,663,Wunderground v.1.15,2013-05-22 20:56:00,
2013-05-22 17:00:00,87.4,57.9,29.76,SW,214,6.0,6.0,37,0.00,,,0.00,584,Wunderground v.1.15,2013-05-22 21:00:00,
2013-05-22 17:02:00,87.5,59.5,29.76,SW,232,5.0,6.0,39,0.00,,,0.00,555,Wunderground v.1.15,2013-05-22 21:02:00,
2013-05-22 17:06:00,87.6,58.9,29.76,SW,230,5.0,6.0,38,0.00,,,0.00,557,Wunderground v.1.15,2013-05-22 21:06:00,
2013-05-22 17:12:00,87.3,57.8,29.76,South,171,6.0,6.0,37,0.00,,,0.00,526,Wunderground v.1.15,2013-05-22 21:12:00,
2013-05-22 17:14:00,87.2,57.8,29.76,SSW,200,6.0,6.0,37,0.00,,,0.00,508,Wunderground v.1.15,2013-05-22 21:14:00,
2013-05-22 17:20:00,86.9,57.5,29.75,SSW,212,7.0,7.0,37,0.00,,,0.00,490,Wunderground v.1.15,2013-05-22 21:20:00,
2013-05-22 17:26:00,87.0,59.0,29.75,WSW,246,7.0,9.0,39,0.00,,,0.00,476,Wunderground v.1.15,2013-05-22 21:26:00,
2013-05-22 17:32:00,86.8,58.9,29.75,WSW,237,5.0,16.0,39,0.00,,,0.00,459,Wunderground v.1.15,2013-05-22 21:32:00,
2013-05-22 17:38:00,86.6,58.7,29.75,WNW,282,5.0,16.0,39,0.00,,,0.00,438,Wunderground v.1.15,2013-05-22 21:38:00,
2013-05-22 17:44:00,86.6,58.7,29.75,West,259,5.0,16.0,39,0.00,,,0.00,353,Wunderground v.1.15,2013-05-22 21:44:00,
2013-05-22 17:50:00,86.2,59.0,29.75,WNW,296,7.0,7.0,40,0.00,,,0.00,169,Wunderground v.1.15,2013-05-22 21:50:00,
2013-05-22 17:56:00,85.5,59.1,29.75,NW,326,7.0,16.0,41,0.00,,,0.00,155,Wunderground v.1.15,2013-05-22 21:56:00,
2013-05-22 18:02:00,84.7,59.7,29.75,NW,308,5.0,16.0,43,0.00,,,0.00,130,Wunderground v.1.15,2013-05-22 22:02:00,
2013-05-22 18:08:00,84.3,60.0,29.75,NNW,333,4.0,16.0,44,0.00,,,0.00,91,Wunderground v.1.15,2013-05-22 22:08:00,
2013-05-22 18:14:00,83.9,60.3,29.78,SW,219,6.0,16.0,45,0.00,,,0.00,9,Wunderground v.1.15,2013-05-22 22:14:00,
2013-05-22 18:20:00,79.2,60.1,29.83,SW,215,11.0,20.0,52,0.00,,,0.00,0,Wunderground v.1.15,2013-05-22 22:20:00,
2013-05-22 18:26:00,71.9,62.0,29.85,SSE,167,12.0,20.0,71,0.33,,,0.05,5,Wunderground v.1.15,2013-05-22 22:26:00,
2013-05-22 18:32:00,68.3,61.9,29.87,WSW,244,6.0,16.0,80,0.19,,,0.07,7,Wunderground v.1.15,2013-05-22 22:32:00,
2013-05-22 18:38:00,66.7,61.0,29.85,NW,317,5.0,16.0,82,0.14,,,0.08,9,Wunderground v.1.15,2013-05-22 22:38:00,
2013-05-22 18:44:00,65.9,61.3,29.83,North,360,2.0,16.0,85,0.06,,,0.08,11,Wunderground v.1.15,2013-05-22 22:44:00,
2013-05-22 18:50:00,65.2,61.9,29.83,WNW,297,1.0,16.0,89,0.04,,,0.09,12,Wunderground v.1.15,2013-05-22 22:50:00,
2013-05-22 18:56:00,64.8,62.1,29.83,NNW,344,1.0,16.0,91,0.04,,,0.09,14,Wunderground v.1.15,2013-05-22 22:56:00,
2013-05-22 19:02:00,64.7,62.3,29.83,North,355,1.0,16.0,92,0.04,,,0.10,21,Wunderground v.1.15,2013-05-22 23:02:00,
2013-05-22 19:08:00,64.7,61.7,29.82,ENE,69,1.0,16.0,90,0.04,,,0.10,46,Wunderground v.1.15,2013-05-22 23:08:00,
2013-05-22 19:14:00,64.7,62.3,29.82,NNE,24,1.0,16.0,92,0.04,,,0.10,86,Wunderground v.1.15,2013-05-22 23:14:00,
2013-05-22 19:20:00,64.8,63.0,29.83,NW,315,1.0,16.0,94,0.00,,,0.10,91,Wunderground v.1.15,2013-05-22 23:20:00,
2013-05-22 19:26:00,64.9,63.1,29.83,NW,315,0.0,16.0,94,0.00,,,0.10,67,Wunderground v.1.15,2013-05-22 23:26:00,
2013-05-22 19:32:00,65.0,63.2,29.83,NW,315,0.0,16.0,94,0.00,,,0.10,46,Wunderground v.1.15,2013-05-22 23:32:00,